sensor_id;sensor_type;location;lat;lon;timestamp;P1;durP1;ratioP1;P2;durP2;ratioP2
41468;SDS011;27206;47.032;15.484;2023-06-10T00:00:26;7.50;;;3.80;;
41468;SDS011;27206;47.032;15.484;2023-06-10T00:02:52;6.90;;;4.20;;
41468;SDS011;27206;47.032;15.484;2023-06-10T00:05:17;7.78;;;3.75;;
41468;SDS011;27206;47.032;15.484;2023-06-10T00:07:45;7.30;;;3.80;;
41468;SDS011;27206;47.032;15.484;2023-06-10T00:10:13;7.07;;;4.10;;
41468;SDS011;27206;47.032;15.484;2023-06-10T00:12:38;6.63;;;4.20;;
41468;SDS011;27206;47.032;15.484;2023-06-10T00:15:05;6.50;;;4.07;;
41468;SDS011;27206;47.032;15.484;2023-06-10T00:17:31;6.95;;;4.32;;
41468;SDS011;27206;47.032;15.484;2023-06-10T00:19:57;7.03;;;4.22;;
41468;SDS011;27206;47.032;15.484;2023-06-10T00:22:23;6.10;;;4.07;;
41468;SDS011;27206;47.032;15.484;2023-06-10T00:24:54;8.10;;;4.32;;
41468;SDS011;27206;47.032;15.484;2023-06-10T00:27:20;7.20;;;3.85;;
41468;SDS011;27206;47.032;15.484;2023-06-10T00:29:46;6.03;;;4.07;;
41468;SDS011;27206;47.032;15.484;2023-06-10T00:32:12;6.47;;;4.03;;
41468;SDS011;27206;47.032;15.484;2023-06-10T00:34:37;6.47;;;3.97;;
41468;SDS011;27206;47.032;15.484;2023-06-10T00:37:03;8.77;;;4.00;;
41468;SDS011;27206;47.032;15.484;2023-06-10T00:39:29;7.68;;;4.03;;
41468;SDS011;27206;47.032;15.484;2023-06-10T00:41:54;10.13;;;3.92;;
41468;SDS011;27206;47.032;15.484;2023-06-10T00:44:20;6.72;;;4.25;;
41468;SDS011;27206;47.032;15.484;2023-06-10T00:46:46;7.47;;;4.00;;
41468;SDS011;27206;47.032;15.484;2023-06-10T00:49:12;7.03;;;3.85;;
41468;SDS011;27206;47.032;15.484;2023-06-10T00:51:38;6.88;;;4.30;;
41468;SDS011;27206;47.032;15.484;2023-06-10T00:54:04;6.75;;;3.90;;
41468;SDS011;27206;47.032;15.484;2023-06-10T00:56:32;8.60;;;4.00;;
41468;SDS011;27206;47.032;15.484;2023-06-10T00:58:59;8.45;;;3.97;;
41468;SDS011;27206;47.032;15.484;2023-06-10T01:01:25;6.60;;;4.32;;
41468;SDS011;27206;47.032;15.484;2023-06-10T01:03:51;7.75;;;3.75;;
41468;SDS011;27206;47.032;15.484;2023-06-10T01:09:02;6.45;;;3.63;;
41468;SDS011;27206;47.032;15.484;2023-06-10T01:11:57;7.35;;;4.07;;
41468;SDS011;27206;47.032;15.484;2023-06-10T01:14:28;6.60;;;3.90;;
41468;SDS011;27206;47.032;15.484;2023-06-10T01:16:54;8.30;;;4.30;;
41468;SDS011;27206;47.032;15.484;2023-06-10T01:19:21;8.57;;;4.07;;
41468;SDS011;27206;47.032;15.484;2023-06-10T01:21:49;8.27;;;3.90;;
41468;SDS011;27206;47.032;15.484;2023-06-10T01:24:16;7.78;;;4.05;;
41468;SDS011;27206;47.032;15.484;2023-06-10T01:26:43;9.10;;;3.70;;
41468;SDS011;27206;47.032;15.484;2023-06-10T01:29:59;7.00;;;3.60;;
41468;SDS011;27206;47.032;15.484;2023-06-10T01:32:06;6.15;;;3.53;;
41468;SDS011;27206;47.032;15.484;2023-06-10T01:34:36;8.95;;;4.05;;
41468;SDS011;27206;47.032;15.484;2023-06-10T01:37:04;5.75;;;3.72;;
41468;SDS011;27206;47.032;15.484;2023-06-10T01:39:30;8.98;;;3.58;;
41468;SDS011;27206;47.032;15.484;2023-06-10T01:41:57;6.25;;;3.65;;
41468;SDS011;27206;47.032;15.484;2023-06-10T01:44:23;10.02;;;4.18;;
41468;SDS011;27206;47.032;15.484;2023-06-10T01:46:49;6.85;;;4.13;;
41468;SDS011;27206;47.032;15.484;2023-06-10T01:49:15;9.68;;;3.92;;
41468;SDS011;27206;47.032;15.484;2023-06-10T01:51:40;6.03;;;3.58;;
41468;SDS011;27206;47.032;15.484;2023-06-10T01:54:06;6.43;;;3.90;;
41468;SDS011;27206;47.032;15.484;2023-06-10T01:56:32;7.18;;;3.85;;
41468;SDS011;27206;47.032;15.484;2023-06-10T01:58:58;6.43;;;3.85;;
41468;SDS011;27206;47.032;15.484;2023-06-10T02:01:27;7.72;;;3.80;;
41468;SDS011;27206;47.032;15.484;2023-06-10T02:03:53;6.93;;;3.83;;
41468;SDS011;27206;47.032;15.484;2023-06-10T02:06:18;7.95;;;4.00;;
41468;SDS011;27206;47.032;15.484;2023-06-10T02:08:44;5.68;;;3.60;;
41468;SDS011;27206;47.032;15.484;2023-06-10T02:11:10;6.45;;;3.63;;
41468;SDS011;27206;47.032;15.484;2023-06-10T02:13:35;7.30;;;3.67;;
41468;SDS011;27206;47.032;15.484;2023-06-10T02:16:01;8.50;;;4.15;;
41468;SDS011;27206;47.032;15.484;2023-06-10T02:18:27;8.15;;;3.95;;
41468;SDS011;27206;47.032;15.484;2023-06-10T02:20:53;8.30;;;3.92;;
41468;SDS011;27206;47.032;15.484;2023-06-10T02:23:19;8.35;;;4.30;;
41468;SDS011;27206;47.032;15.484;2023-06-10T02:25:45;9.27;;;4.70;;
41468;SDS011;27206;47.032;15.484;2023-06-10T02:28:12;8.27;;;4.15;;
41468;SDS011;27206;47.032;15.484;2023-06-10T02:30:39;8.35;;;4.65;;
41468;SDS011;27206;47.032;15.484;2023-06-10T02:33:05;7.53;;;4.55;;
41468;SDS011;27206;47.032;15.484;2023-06-10T02:35:34;9.77;;;4.35;;
41468;SDS011;27206;47.032;15.484;2023-06-10T02:38:01;11.05;;;4.40;;
41468;SDS011;27206;47.032;15.484;2023-06-10T02:40:27;7.28;;;4.38;;
41468;SDS011;27206;47.032;15.484;2023-06-10T02:42:53;12.38;;;4.53;;
41468;SDS011;27206;47.032;15.484;2023-06-10T02:45:18;9.80;;;5.10;;
41468;SDS011;27206;47.032;15.484;2023-06-10T02:47:44;7.05;;;4.03;;
41468;SDS011;27206;47.032;15.484;2023-06-10T02:50:10;7.40;;;5.47;;
41468;SDS011;27206;47.032;15.484;2023-06-10T02:52:36;8.48;;;5.50;;
41468;SDS011;27206;47.032;15.484;2023-06-10T02:55:01;9.80;;;3.90;;
41468;SDS011;27206;47.032;15.484;2023-06-10T02:57:27;10.93;;;3.90;;
41468;SDS011;27206;47.032;15.484;2023-06-10T02:59:52;8.93;;;4.45;;
41468;SDS011;27206;47.032;15.484;2023-06-10T03:02:18;7.47;;;4.75;;
41468;SDS011;27206;47.032;15.484;2023-06-10T03:04:45;13.70;;;5.03;;
41468;SDS011;27206;47.032;15.484;2023-06-10T03:07:10;10.55;;;5.65;;
41468;SDS011;27206;47.032;15.484;2023-06-10T03:09:36;10.80;;;6.15;;
41468;SDS011;27206;47.032;15.484;2023-06-10T03:12:02;9.18;;;5.72;;
41468;SDS011;27206;47.032;15.484;2023-06-10T03:14:28;10.20;;;5.05;;
41468;SDS011;27206;47.032;15.484;2023-06-10T03:16:53;9.98;;;4.88;;
41468;SDS011;27206;47.032;15.484;2023-06-10T03:19:19;13.07;;;4.43;;
41468;SDS011;27206;47.032;15.484;2023-06-10T03:21:49;9.73;;;4.93;;
41468;SDS011;27206;47.032;15.484;2023-06-10T03:24:19;8.75;;;4.88;;
41468;SDS011;27206;47.032;15.484;2023-06-10T03:26:45;8.75;;;5.07;;
41468;SDS011;27206;47.032;15.484;2023-06-10T03:29:11;8.73;;;4.32;;
41468;SDS011;27206;47.032;15.484;2023-06-10T03:31:36;12.82;;;5.45;;
41468;SDS011;27206;47.032;15.484;2023-06-10T03:34:03;6.95;;;3.97;;
41468;SDS011;27206;47.032;15.484;2023-06-10T03:36:29;7.85;;;4.50;;
41468;SDS011;27206;47.032;15.484;2023-06-10T03:38:55;7.18;;;4.53;;
41468;SDS011;27206;47.032;15.484;2023-06-10T03:41:22;8.52;;;4.72;;
41468;SDS011;27206;47.032;15.484;2023-06-10T03:43:48;7.25;;;4.35;;
41468;SDS011;27206;47.032;15.484;2023-06-10T03:46:13;8.25;;;4.32;;
41468;SDS011;27206;47.032;15.484;2023-06-10T03:48:39;12.45;;;4.60;;
41468;SDS011;27206;47.032;15.484;2023-06-10T03:51:05;8.73;;;5.35;;
41468;SDS011;27206;47.032;15.484;2023-06-10T03:53:31;8.60;;;5.03;;
41468;SDS011;27206;47.032;15.484;2023-06-10T03:55:57;13.63;;;5.55;;
41468;SDS011;27206;47.032;15.484;2023-06-10T03:58:22;11.57;;;6.35;;
41468;SDS011;27206;47.032;15.484;2023-06-10T04:00:48;10.80;;;6.30;;
41468;SDS011;27206;47.032;15.484;2023-06-10T04:03:14;13.90;;;7.32;;
41468;SDS011;27206;47.032;15.484;2023-06-10T04:05:40;11.85;;;5.72;;
41468;SDS011;27206;47.032;15.484;2023-06-10T04:08:08;10.90;;;6.57;;
41468;SDS011;27206;47.032;15.484;2023-06-10T04:10:34;9.85;;;6.45;;
41468;SDS011;27206;47.032;15.484;2023-06-10T04:13:00;10.30;;;6.07;;
41468;SDS011;27206;47.032;15.484;2023-06-10T04:15:26;9.30;;;5.53;;
41468;SDS011;27206;47.032;15.484;2023-06-10T04:17:52;10.90;;;4.90;;
41468;SDS011;27206;47.032;15.484;2023-06-10T04:20:17;9.18;;;4.60;;
41468;SDS011;27206;47.032;15.484;2023-06-10T04:22:43;8.80;;;4.55;;
41468;SDS011;27206;47.032;15.484;2023-06-10T04:25:09;9.80;;;5.18;;
41468;SDS011;27206;47.032;15.484;2023-06-10T04:27:35;7.75;;;4.65;;
41468;SDS011;27206;47.032;15.484;2023-06-10T04:30:02;8.05;;;4.70;;
41468;SDS011;27206;47.032;15.484;2023-06-10T04:32:29;8.88;;;4.90;;
41468;SDS011;27206;47.032;15.484;2023-06-10T04:34:55;6.75;;;3.83;;
41468;SDS011;27206;47.032;15.484;2023-06-10T04:37:21;7.45;;;4.28;;
41468;SDS011;27206;47.032;15.484;2023-06-10T04:39:46;6.13;;;4.30;;
41468;SDS011;27206;47.032;15.484;2023-06-10T04:42:12;7.07;;;4.72;;
41468;SDS011;27206;47.032;15.484;2023-06-10T04:44:38;8.13;;;4.82;;
41468;SDS011;27206;47.032;15.484;2023-06-10T04:47:04;9.55;;;4.20;;
41468;SDS011;27206;47.032;15.484;2023-06-10T04:49:29;9.55;;;4.95;;
41468;SDS011;27206;47.032;15.484;2023-06-10T04:51:56;8.10;;;4.40;;
41468;SDS011;27206;47.032;15.484;2023-06-10T04:54:21;8.15;;;4.15;;
41468;SDS011;27206;47.032;15.484;2023-06-10T04:56:47;7.53;;;4.53;;
41468;SDS011;27206;47.032;15.484;2023-06-10T04:59:13;8.98;;;4.80;;
41468;SDS011;27206;47.032;15.484;2023-06-10T05:01:39;7.55;;;4.70;;
41468;SDS011;27206;47.032;15.484;2023-06-10T05:04:05;7.93;;;4.88;;
41468;SDS011;27206;47.032;15.484;2023-06-10T05:06:30;7.68;;;4.72;;
41468;SDS011;27206;47.032;15.484;2023-06-10T05:08:56;8.50;;;4.78;;
41468;SDS011;27206;47.032;15.484;2023-06-10T05:11:21;8.45;;;4.60;;
41468;SDS011;27206;47.032;15.484;2023-06-10T05:13:47;7.20;;;4.53;;
41468;SDS011;27206;47.032;15.484;2023-06-10T05:16:13;7.93;;;4.72;;
41468;SDS011;27206;47.032;15.484;2023-06-10T05:18:40;9.15;;;5.65;;
41468;SDS011;27206;47.032;15.484;2023-06-10T05:21:06;8.30;;;4.93;;
41468;SDS011;27206;47.032;15.484;2023-06-10T05:23:32;9.98;;;5.00;;
41468;SDS011;27206;47.032;15.484;2023-06-10T05:25:58;8.15;;;5.03;;
41468;SDS011;27206;47.032;15.484;2023-06-10T05:28:24;8.10;;;5.20;;
41468;SDS011;27206;47.032;15.484;2023-06-10T05:30:50;6.70;;;4.50;;
41468;SDS011;27206;47.032;15.484;2023-06-10T05:33:16;8.98;;;4.95;;
41468;SDS011;27206;47.032;15.484;2023-06-10T05:35:42;9.82;;;5.72;;
41468;SDS011;27206;47.032;15.484;2023-06-10T05:38:07;7.80;;;4.35;;
41468;SDS011;27206;47.032;15.484;2023-06-10T05:40:33;6.68;;;4.60;;
41468;SDS011;27206;47.032;15.484;2023-06-10T05:42:58;9.40;;;4.95;;
41468;SDS011;27206;47.032;15.484;2023-06-10T05:45:24;8.45;;;4.85;;
41468;SDS011;27206;47.032;15.484;2023-06-10T05:47:50;9.75;;;4.95;;
41468;SDS011;27206;47.032;15.484;2023-06-10T05:50:15;9.05;;;5.20;;
41468;SDS011;27206;47.032;15.484;2023-06-10T05:52:41;7.45;;;4.63;;
41468;SDS011;27206;47.032;15.484;2023-06-10T05:55:07;7.63;;;5.07;;
41468;SDS011;27206;47.032;15.484;2023-06-10T05:57:33;8.07;;;4.72;;
41468;SDS011;27206;47.032;15.484;2023-06-10T05:59:59;7.97;;;5.10;;
41468;SDS011;27206;47.032;15.484;2023-06-10T06:02:24;7.82;;;4.18;;
41468;SDS011;27206;47.032;15.484;2023-06-10T06:04:50;10.05;;;4.72;;
41468;SDS011;27206;47.032;15.484;2023-06-10T06:07:16;7.97;;;4.90;;
41468;SDS011;27206;47.032;15.484;2023-06-10T06:09:41;9.52;;;4.80;;
41468;SDS011;27206;47.032;15.484;2023-06-10T06:12:07;7.63;;;5.10;;
41468;SDS011;27206;47.032;15.484;2023-06-10T06:14:36;8.02;;;4.90;;
41468;SDS011;27206;47.032;15.484;2023-06-10T06:17:02;9.30;;;5.38;;
41468;SDS011;27206;47.032;15.484;2023-06-10T06:19:28;10.10;;;6.63;;
41468;SDS011;27206;47.032;15.484;2023-06-10T06:21:54;10.32;;;5.68;;
41468;SDS011;27206;47.032;15.484;2023-06-10T06:24:19;8.68;;;5.47;;
41468;SDS011;27206;47.032;15.484;2023-06-10T06:26:45;8.65;;;5.90;;
41468;SDS011;27206;47.032;15.484;2023-06-10T06:29:11;8.90;;;5.75;;
41468;SDS011;27206;47.032;15.484;2023-06-10T06:31:36;9.57;;;5.63;;
41468;SDS011;27206;47.032;15.484;2023-06-10T06:34:02;8.45;;;6.03;;
41468;SDS011;27206;47.032;15.484;2023-06-10T06:36:27;8.43;;;5.80;;
41468;SDS011;27206;47.032;15.484;2023-06-10T06:38:53;10.10;;;6.07;;
41468;SDS011;27206;47.032;15.484;2023-06-10T06:41:19;9.45;;;5.32;;
41468;SDS011;27206;47.032;15.484;2023-06-10T06:43:44;8.88;;;5.85;;
41468;SDS011;27206;47.032;15.484;2023-06-10T06:46:10;8.80;;;5.70;;
41468;SDS011;27206;47.032;15.484;2023-06-10T06:48:35;7.82;;;5.15;;
41468;SDS011;27206;47.032;15.484;2023-06-10T06:51:01;7.30;;;4.78;;
41468;SDS011;27206;47.032;15.484;2023-06-10T06:53:27;8.52;;;5.47;;
41468;SDS011;27206;47.032;15.484;2023-06-10T06:55:53;8.88;;;5.50;;
41468;SDS011;27206;47.032;15.484;2023-06-10T06:58:18;7.70;;;5.18;;
41468;SDS011;27206;47.032;15.484;2023-06-10T07:00:44;7.72;;;5.07;;
41468;SDS011;27206;47.032;15.484;2023-06-10T07:03:10;8.75;;;5.47;;
41468;SDS011;27206;47.032;15.484;2023-06-10T07:05:36;8.50;;;5.35;;
41468;SDS011;27206;47.032;15.484;2023-06-10T07:08:02;6.72;;;4.50;;
41468;SDS011;27206;47.032;15.484;2023-06-10T07:10:28;6.70;;;4.45;;
41468;SDS011;27206;47.032;15.484;2023-06-10T07:12:53;5.95;;;3.70;;
41468;SDS011;27206;47.032;15.484;2023-06-10T07:15:19;6.47;;;4.22;;
41468;SDS011;27206;47.032;15.484;2023-06-10T07:17:45;7.45;;;3.90;;
41468;SDS011;27206;47.032;15.484;2023-06-10T07:20:11;6.80;;;4.50;;
41468;SDS011;27206;47.032;15.484;2023-06-10T07:22:37;8.32;;;4.40;;
41468;SDS011;27206;47.032;15.484;2023-06-10T07:25:04;6.50;;;4.00;;
41468;SDS011;27206;47.032;15.484;2023-06-10T07:27:30;8.75;;;5.07;;
41468;SDS011;27206;47.032;15.484;2023-06-10T07:29:56;8.18;;;4.72;;
41468;SDS011;27206;47.032;15.484;2023-06-10T07:32:22;9.05;;;4.45;;
41468;SDS011;27206;47.032;15.484;2023-06-10T07:34:49;6.25;;;3.95;;
41468;SDS011;27206;47.032;15.484;2023-06-10T07:37:15;8.32;;;4.45;;
41468;SDS011;27206;47.032;15.484;2023-06-10T07:39:41;8.68;;;4.45;;
41468;SDS011;27206;47.032;15.484;2023-06-10T07:42:08;6.82;;;3.97;;
41468;SDS011;27206;47.032;15.484;2023-06-10T07:44:33;6.32;;;4.10;;
41468;SDS011;27206;47.032;15.484;2023-06-10T07:46:59;6.65;;;4.03;;
41468;SDS011;27206;47.032;15.484;2023-06-10T07:49:25;6.82;;;3.67;;
41468;SDS011;27206;47.032;15.484;2023-06-10T07:51:50;5.35;;;3.50;;
41468;SDS011;27206;47.032;15.484;2023-06-10T07:54:19;6.07;;;3.65;;
41468;SDS011;27206;47.032;15.484;2023-06-10T07:56:44;5.20;;;3.50;;
41468;SDS011;27206;47.032;15.484;2023-06-10T07:59:10;5.82;;;3.30;;
41468;SDS011;27206;47.032;15.484;2023-06-10T08:01:35;6.82;;;3.75;;
41468;SDS011;27206;47.032;15.484;2023-06-10T08:04:03;5.53;;;3.50;;
41468;SDS011;27206;47.032;15.484;2023-06-10T08:06:29;5.65;;;3.90;;
41468;SDS011;27206;47.032;15.484;2023-06-10T08:08:54;5.75;;;3.60;;
41468;SDS011;27206;47.032;15.484;2023-06-10T08:11:20;6.38;;;4.03;;
41468;SDS011;27206;47.032;15.484;2023-06-10T08:13:46;8.05;;;4.18;;
41468;SDS011;27206;47.032;15.484;2023-06-10T08:16:11;7.90;;;4.60;;
41468;SDS011;27206;47.032;15.484;2023-06-10T08:18:37;7.93;;;4.22;;
41468;SDS011;27206;47.032;15.484;2023-06-10T08:21:03;6.20;;;3.55;;
41468;SDS011;27206;47.032;15.484;2023-06-10T08:23:29;6.38;;;3.97;;
41468;SDS011;27206;47.032;15.484;2023-06-10T08:25:55;6.45;;;4.13;;
41468;SDS011;27206;47.032;15.484;2023-06-10T08:28:21;6.38;;;4.30;;
41468;SDS011;27206;47.032;15.484;2023-06-10T08:30:46;7.85;;;4.40;;
41468;SDS011;27206;47.032;15.484;2023-06-10T08:33:12;6.82;;;4.25;;
41468;SDS011;27206;47.032;15.484;2023-06-10T08:35:37;8.73;;;4.50;;
41468;SDS011;27206;47.032;15.484;2023-06-10T08:38:03;5.45;;;3.85;;
41468;SDS011;27206;47.032;15.484;2023-06-10T08:40:29;7.00;;;4.40;;
41468;SDS011;27206;47.032;15.484;2023-06-10T08:45:30;5.88;;;3.92;;
41468;SDS011;27206;47.032;15.484;2023-06-10T08:47:57;8.93;;;4.35;;
41468;SDS011;27206;47.032;15.484;2023-06-10T08:50:24;6.28;;;4.10;;
41468;SDS011;27206;47.032;15.484;2023-06-10T08:52:54;8.00;;;4.10;;
41468;SDS011;27206;47.032;15.484;2023-06-10T08:57:52;6.30;;;4.32;;
41468;SDS011;27206;47.032;15.484;2023-06-10T09:00:18;9.13;;;4.22;;
41468;SDS011;27206;47.032;15.484;2023-06-10T09:02:44;7.90;;;4.75;;
41468;SDS011;27206;47.032;15.484;2023-06-10T09:05:11;6.95;;;4.13;;
41468;SDS011;27206;47.032;15.484;2023-06-10T09:07:38;6.45;;;4.28;;
41468;SDS011;27206;47.032;15.484;2023-06-10T09:10:04;6.55;;;4.22;;
41468;SDS011;27206;47.032;15.484;2023-06-10T09:12:32;7.30;;;5.15;;
41468;SDS011;27206;47.032;15.484;2023-06-10T09:14:59;7.15;;;4.32;;
41468;SDS011;27206;47.032;15.484;2023-06-10T09:17:25;5.75;;;4.10;;
41468;SDS011;27206;47.032;15.484;2023-06-10T09:19:52;6.65;;;4.82;;
41468;SDS011;27206;47.032;15.484;2023-06-10T09:22:20;6.75;;;4.35;;
41468;SDS011;27206;47.032;15.484;2023-06-10T09:24:47;6.63;;;4.43;;
41468;SDS011;27206;47.032;15.484;2023-06-10T09:27:13;7.25;;;4.63;;
41468;SDS011;27206;47.032;15.484;2023-06-10T09:29:45;8.20;;;4.53;;
41468;SDS011;27206;47.032;15.484;2023-06-10T09:32:13;7.22;;;4.85;;
41468;SDS011;27206;47.032;15.484;2023-06-10T09:34:39;6.68;;;4.30;;
41468;SDS011;27206;47.032;15.484;2023-06-10T09:37:05;6.65;;;4.32;;
41468;SDS011;27206;47.032;15.484;2023-06-10T09:39:31;8.80;;;4.95;;
41468;SDS011;27206;47.032;15.484;2023-06-10T09:41:57;7.55;;;4.53;;
41468;SDS011;27206;47.032;15.484;2023-06-10T09:44:22;8.57;;;4.57;;
41468;SDS011;27206;47.032;15.484;2023-06-10T09:46:50;7.47;;;4.80;;
41468;SDS011;27206;47.032;15.484;2023-06-10T09:49:16;7.22;;;4.75;;
41468;SDS011;27206;47.032;15.484;2023-06-10T09:51:52;7.10;;;4.55;;
41468;SDS011;27206;47.032;15.484;2023-06-10T09:54:18;6.43;;;4.43;;
41468;SDS011;27206;47.032;15.484;2023-06-10T09:56:48;6.88;;;4.38;;
41468;SDS011;27206;47.032;15.484;2023-06-10T09:59:15;7.28;;;4.28;;
41468;SDS011;27206;47.032;15.484;2023-06-10T10:01:41;8.18;;;4.75;;
41468;SDS011;27206;47.032;15.484;2023-06-10T10:04:06;8.95;;;4.57;;
41468;SDS011;27206;47.032;15.484;2023-06-10T10:06:32;6.60;;;4.38;;
41468;SDS011;27206;47.032;15.484;2023-06-10T10:09:00;7.43;;;5.07;;
41468;SDS011;27206;47.032;15.484;2023-06-10T10:11:25;6.72;;;4.20;;
41468;SDS011;27206;47.032;15.484;2023-06-10T10:13:52;8.70;;;4.40;;
41468;SDS011;27206;47.032;15.484;2023-06-10T10:19:02;6.30;;;4.10;;
41468;SDS011;27206;47.032;15.484;2023-06-10T10:21:35;6.35;;;4.18;;
41468;SDS011;27206;47.032;15.484;2023-06-10T10:24:07;6.53;;;4.10;;
41468;SDS011;27206;47.032;15.484;2023-06-10T10:26:37;6.72;;;4.03;;
41468;SDS011;27206;47.032;15.484;2023-06-10T10:29:09;6.32;;;4.40;;
41468;SDS011;27206;47.032;15.484;2023-06-10T10:34:04;5.85;;;3.83;;
41468;SDS011;27206;47.032;15.484;2023-06-10T10:36:34;6.15;;;4.03;;
41468;SDS011;27206;47.032;15.484;2023-06-10T10:39:01;10.18;;;4.18;;
41468;SDS011;27206;47.032;15.484;2023-06-10T10:41:28;5.80;;;3.80;;
41468;SDS011;27206;47.032;15.484;2023-06-10T10:43:56;6.38;;;4.40;;
41468;SDS011;27206;47.032;15.484;2023-06-10T10:46:22;7.65;;;4.55;;
41468;SDS011;27206;47.032;15.484;2023-06-10T10:48:51;5.18;;;3.83;;
41468;SDS011;27206;47.032;15.484;2023-06-10T10:51:19;5.82;;;3.88;;
41468;SDS011;27206;47.032;15.484;2023-06-10T10:54:09;5.40;;;3.90;;
41468;SDS011;27206;47.032;15.484;2023-06-10T11:02:17;5.80;;;3.92;;
41468;SDS011;27206;47.032;15.484;2023-06-10T11:04:56;6.07;;;3.60;;
41468;SDS011;27206;47.032;15.484;2023-06-10T11:07:22;5.25;;;3.50;;
41468;SDS011;27206;47.032;15.484;2023-06-10T11:12:25;6.88;;;3.80;;
41468;SDS011;27206;47.032;15.484;2023-06-10T11:14:54;6.68;;;3.65;;
41468;SDS011;27206;47.032;15.484;2023-06-10T11:17:21;6.57;;;4.03;;
41468;SDS011;27206;47.032;15.484;2023-06-10T11:19:47;5.53;;;3.60;;
41468;SDS011;27206;47.032;15.484;2023-06-10T11:22:18;4.88;;;3.72;;
41468;SDS011;27206;47.032;15.484;2023-06-10T11:24:48;6.07;;;4.10;;
41468;SDS011;27206;47.032;15.484;2023-06-10T11:27:19;4.97;;;3.38;;
41468;SDS011;27206;47.032;15.484;2023-06-10T11:30:17;7.10;;;3.80;;
41468;SDS011;27206;47.032;15.484;2023-06-10T11:32:50;5.13;;;3.50;;
41468;SDS011;27206;47.032;15.484;2023-06-10T11:35:18;5.15;;;3.15;;
41468;SDS011;27206;47.032;15.484;2023-06-10T11:37:44;6.80;;;3.65;;
41468;SDS011;27206;47.032;15.484;2023-06-10T11:40:11;5.90;;;3.60;;
41468;SDS011;27206;47.032;15.484;2023-06-10T11:42:40;5.15;;;3.35;;
41468;SDS011;27206;47.032;15.484;2023-06-10T11:45:07;6.43;;;3.70;;
41468;SDS011;27206;47.032;15.484;2023-06-10T11:47:33;5.78;;;3.53;;
41468;SDS011;27206;47.032;15.484;2023-06-10T11:49:59;4.55;;;3.17;;
41468;SDS011;27206;47.032;15.484;2023-06-10T11:52:31;4.68;;;3.08;;
41468;SDS011;27206;47.032;15.484;2023-06-10T11:54:58;5.63;;;3.33;;
41468;SDS011;27206;47.032;15.484;2023-06-10T11:57:24;4.82;;;3.15;;
41468;SDS011;27206;47.032;15.484;2023-06-10T11:59:50;5.63;;;3.17;;
41468;SDS011;27206;47.032;15.484;2023-06-10T12:02:16;4.38;;;2.97;;
41468;SDS011;27206;47.032;15.484;2023-06-10T12:04:44;5.53;;;3.40;;
41468;SDS011;27206;47.032;15.484;2023-06-10T12:07:16;4.20;;;3.10;;
41468;SDS011;27206;47.032;15.484;2023-06-10T12:09:46;6.30;;;3.28;;
41468;SDS011;27206;47.032;15.484;2023-06-10T12:12:13;4.57;;;3.08;;
41468;SDS011;27206;47.032;15.484;2023-06-10T12:17:22;4.10;;;2.90;;
41468;SDS011;27206;47.032;15.484;2023-06-10T12:19:49;5.32;;;3.15;;
41468;SDS011;27206;47.032;15.484;2023-06-10T12:22:15;4.72;;;3.13;;
41468;SDS011;27206;47.032;15.484;2023-06-10T12:24:56;3.92;;;3.05;;
41468;SDS011;27206;47.032;15.484;2023-06-10T12:27:24;4.75;;;3.30;;
41468;SDS011;27206;47.032;15.484;2023-06-10T12:29:51;5.63;;;3.05;;
41468;SDS011;27206;47.032;15.484;2023-06-10T12:32:20;5.65;;;3.60;;
41468;SDS011;27206;47.032;15.484;2023-06-10T12:34:54;6.88;;;3.30;;
41468;SDS011;27206;47.032;15.484;2023-06-10T12:37:29;4.10;;;2.95;;
41468;SDS011;27206;47.032;15.484;2023-06-10T12:39:55;4.40;;;2.80;;
41468;SDS011;27206;47.032;15.484;2023-06-10T12:42:24;4.72;;;3.08;;
41468;SDS011;27206;47.032;15.484;2023-06-10T12:44:53;4.70;;;2.85;;
41468;SDS011;27206;47.032;15.484;2023-06-10T12:47:19;5.15;;;3.20;;
41468;SDS011;27206;47.032;15.484;2023-06-10T12:49:44;5.72;;;3.22;;
41468;SDS011;27206;47.032;15.484;2023-06-10T12:52:10;4.60;;;2.83;;
41468;SDS011;27206;47.032;15.484;2023-06-10T12:54:36;4.20;;;2.70;;
41468;SDS011;27206;47.032;15.484;2023-06-10T12:57:02;4.43;;;2.95;;
41468;SDS011;27206;47.032;15.484;2023-06-10T12:59:28;4.20;;;3.22;;
41468;SDS011;27206;47.032;15.484;2023-06-10T13:01:54;5.38;;;3.17;;
41468;SDS011;27206;47.032;15.484;2023-06-10T13:04:23;5.18;;;3.05;;
41468;SDS011;27206;47.032;15.484;2023-06-10T13:06:48;5.20;;;2.92;;
41468;SDS011;27206;47.032;15.484;2023-06-10T13:09:15;4.80;;;2.83;;
41468;SDS011;27206;47.032;15.484;2023-06-10T13:11:41;5.38;;;3.40;;
41468;SDS011;27206;47.032;15.484;2023-06-10T13:14:07;5.05;;;3.22;;
41468;SDS011;27206;47.032;15.484;2023-06-10T13:16:35;5.80;;;3.80;;
41468;SDS011;27206;47.032;15.484;2023-06-10T13:19:02;5.15;;;3.22;;
41468;SDS011;27206;47.032;15.484;2023-06-10T13:21:30;6.05;;;3.40;;
41468;SDS011;27206;47.032;15.484;2023-06-10T13:23:57;5.25;;;3.47;;
41468;SDS011;27206;47.032;15.484;2023-06-10T13:26:22;5.13;;;3.15;;
41468;SDS011;27206;47.032;15.484;2023-06-10T13:28:48;5.13;;;3.20;;
41468;SDS011;27206;47.032;15.484;2023-06-10T13:31:13;4.45;;;3.00;;
41468;SDS011;27206;47.032;15.484;2023-06-10T13:33:39;4.60;;;3.00;;
41468;SDS011;27206;47.032;15.484;2023-06-10T13:36:05;5.10;;;3.22;;
41468;SDS011;27206;47.032;15.484;2023-06-10T13:38:31;5.15;;;3.13;;
41468;SDS011;27206;47.032;15.484;2023-06-10T13:40:57;6.15;;;3.20;;
41468;SDS011;27206;47.032;15.484;2023-06-10T13:43:22;6.07;;;3.20;;
41468;SDS011;27206;47.032;15.484;2023-06-10T13:45:48;4.40;;;2.85;;
41468;SDS011;27206;47.032;15.484;2023-06-10T13:48:14;3.80;;;2.72;;
41468;SDS011;27206;47.032;15.484;2023-06-10T13:50:39;4.28;;;2.78;;
41468;SDS011;27206;47.032;15.484;2023-06-10T13:53:05;4.43;;;2.83;;
41468;SDS011;27206;47.032;15.484;2023-06-10T13:55:30;3.70;;;2.60;;
41468;SDS011;27206;47.032;15.484;2023-06-10T13:57:56;3.88;;;2.67;;
41468;SDS011;27206;47.032;15.484;2023-06-10T14:00:22;3.92;;;2.63;;
41468;SDS011;27206;47.032;15.484;2023-06-10T14:02:47;4.40;;;2.63;;
41468;SDS011;27206;47.032;15.484;2023-06-10T14:05:13;5.03;;;2.45;;
41468;SDS011;27206;47.032;15.484;2023-06-10T14:07:38;5.10;;;3.00;;
41468;SDS011;27206;47.032;15.484;2023-06-10T14:10:05;11.98;;;7.75;;
41468;SDS011;27206;47.032;15.484;2023-06-10T14:12:33;6.22;;;3.70;;
41468;SDS011;27206;47.032;15.484;2023-06-10T14:14:58;6.85;;;3.50;;
41468;SDS011;27206;47.032;15.484;2023-06-10T14:17:24;5.32;;;3.20;;
41468;SDS011;27206;47.032;15.484;2023-06-10T14:19:49;6.70;;;4.57;;
41468;SDS011;27206;47.032;15.484;2023-06-10T14:22:15;6.88;;;4.22;;
41468;SDS011;27206;47.032;15.484;2023-06-10T14:24:41;5.88;;;3.10;;
41468;SDS011;27206;47.032;15.484;2023-06-10T14:27:06;5.75;;;3.60;;
41468;SDS011;27206;47.032;15.484;2023-06-10T14:29:32;4.68;;;3.13;;
41468;SDS011;27206;47.032;15.484;2023-06-10T14:31:58;6.28;;;2.80;;
41468;SDS011;27206;47.032;15.484;2023-06-10T14:34:24;6.78;;;3.38;;
41468;SDS011;27206;47.032;15.484;2023-06-10T14:36:54;21.27;;;13.90;;
41468;SDS011;27206;47.032;15.484;2023-06-10T14:39:20;18.75;;;11.82;;
41468;SDS011;27206;47.032;15.484;2023-06-10T14:41:46;8.40;;;5.10;;
41468;SDS011;27206;47.032;15.484;2023-06-10T14:44:11;6.85;;;4.50;;
41468;SDS011;27206;47.032;15.484;2023-06-10T14:46:37;9.02;;;6.63;;
41468;SDS011;27206;47.032;15.484;2023-06-10T14:49:02;7.10;;;5.00;;
41468;SDS011;27206;47.032;15.484;2023-06-10T14:51:28;5.85;;;3.90;;
41468;SDS011;27206;47.032;15.484;2023-06-10T14:53:53;7.05;;;4.20;;